Time;durP1;ratioP1;P1;durP2;ratioP2;P2;SDS_P1;SDS_P2;PMS_P1;PMS_P2;Temp;Humidity;BMP_temperature;BMP_pressure;BME280_temperature;BME280_humidity;BME280_pressure;Samples;Min_cycle;Max_cycle;Signal;HPM_P1;HPM_P2
2021/05/03 04:37:58;;;;;;;17.40;7.47;;;;;;;6.31;65.06;98755.03;125452;1093;102969;-69
2021/05/03 04:40:26;;;;;;;19.03;7.93;;;;;;;6.30;65.15;98753.33;125466;1097;103017;-71
2021/05/03 04:42:55;;;;;;;16.80;7.00;;;;;;;6.30;65.15;98754.16;125515;1104;102990;-70
2021/05/03 04:45:25;;;;;;;17.37;7.60;;;;;;;6.28;65.25;98757.86;125467;1104;103100;-70
2021/05/03 04:47:52;;;;;;;18.00;7.90;;;;;;;6.28;65.09;98753.41;125506;1104;103130;-70
2021/05/03 04:50:20;;;;;;;18.00;8.27;;;;;;;6.28;65.16;98765.78;125534;1100;103099;-71
2021/05/03 04:52:47;;;;;;;19.73;8.90;;;;;;;6.28;65.27;98756.05;125535;1104;103480;-72
2021/05/03 04:55:15;;;;;;;17.10;8.07;;;;;;;6.31;65.29;98761.15;125511;1104;103189;-70
2021/05/03 04:57:42;;;;;;;19.63;8.83;;;;;;;6.32;65.43;98764.63;125550;1104;103206;-70
2021/05/03 05:00:12;;;;;;;18.53;8.57;;;;;;;6.33;65.36;98768.97;125463;1104;103086;-70
2021/05/03 05:02:39;;;;;;;17.17;7.60;;;;;;;6.34;65.57;98766.25;125556;1099;103052;-70
2021/05/03 05:05:10;;;;;;;16.07;7.40;;;;;;;6.37;65.61;98765.20;125522;1104;103091;-70
2021/05/03 05:07:41;;;;;;;18.10;8.27;;;;;;;6.39;65.35;98772.11;125561;1104;102993;-71
2021/05/03 05:10:12;;;;;;;16.73;7.83;;;;;;;6.40;65.41;98768.53;125577;1104;103104;-70
2021/05/03 05:12:40;;;;;;;18.20;7.70;;;;;;;6.44;65.64;98768.34;125549;1097;103117;-70
2021/05/03 05:15:08;;;;;;;19.23;7.90;;;;;;;6.45;65.72;98773.52;125549;1104;103091;-72
2021/05/03 05:17:37;;;;;;;20.83;8.90;;;;;;;6.48;65.58;98775.98;125463;1105;103470;-70
2021/05/03 05:20:08;;;;;;;16.70;7.33;;;;;;;6.50;65.56;98776.73;125531;1104;103019;-70
2021/05/03 05:22:39;;;;;;;16.47;7.73;;;;;;;6.53;65.79;98767.77;125514;1100;103438;-70
2021/05/03 05:25:09;;;;;;;16.50;7.00;;;;;;;6.57;65.57;98786.94;125498;1100;103089;-70
2021/05/03 05:27:37;;;;;;;19.47;8.83;;;;;;;6.59;65.68;98779.77;125557;1104;103020;-69
2021/05/03 05:30:08;;;;;;;17.73;8.33;;;;;;;6.65;65.64;98777.59;125514;1104;102998;-70
2021/05/03 05:32:35;;;;;;;18.10;7.90;;;;;;;6.74;65.62;98789.38;125575;1104;102994;-70
2021/05/03 05:35:06;;;;;;;20.53;8.67;;;;;;;6.79;65.58;98792.59;125529;1104;103091;-70
2021/05/03 05:37:33;;;;;;;16.67;7.23;;;;;;;6.83;65.63;98798.56;125646;1104;103184;-71
2021/05/03 05:40:03;;;;;;;17.97;7.77;;;;;;;6.84;65.84;98794.98;125517;1104;103070;-72
2021/05/03 05:42:31;;;;;;;18.23;8.27;;;;;;;6.85;65.66;98780.81;125490;1104;103152;-69
2021/05/03 05:44:58;;;;;;;14.67;6.60;;;;;;;6.86;65.61;98787.80;125627;1104;101797;-71
2021/05/03 05:47:28;;;;;;;17.77;8.00;;;;;;;6.87;65.80;98786.86;125500;1104;103583;-70
2021/05/03 05:49:56;;;;;;;16.20;7.50;;;;;;;6.84;65.89;98787.88;125519;1100;103016;-70
2021/05/03 05:52:24;;;;;;;18.73;8.73;;;;;;;6.82;65.91;98789.77;125579;1104;103088;-69
2021/05/03 05:54:54;;;;;;;17.83;7.90;;;;;;;6.85;65.91;98786.10;125539;1099;103029;-70
2021/05/03 05:57:22;;;;;;;18.30;8.13;;;;;;;6.87;65.92;98785.99;125568;1099;103020;-70
2021/05/03 05:59:51;;;;;;;20.37;9.43;;;;;;;6.88;65.82;98792.98;125509;1104;103173;-71
2021/05/03 06:02:18;;;;;;;17.70;8.50;;;;;;;6.89;65.75;98786.75;125602;1104;103046;-70
2021/05/03 06:04:45;;;;;;;18.17;8.37;;;;;;;6.90;66.03;98791.95;125540;1104;103066;-72
2021/05/03 06:07:12;;;;;;;15.17;7.70;;;;;;;6.92;65.84;98792.72;125546;1096;103018;-71
2021/05/03 06:10:03;;;;;;;14.07;6.70;;;;;;;6.95;66.00;98804.88;125510;1104;103094;-70
2021/05/03 06:12:30;;;;;;;15.23;7.10;;;;;;;6.97;65.74;98805.64;125513;1104;103155;-70
2021/05/03 06:14:58;;;;;;;13.70;6.30;;;;;;;6.99;65.81;98794.01;125509;1097;102969;-70
2021/05/03 06:17:25;;;;;;;14.20;6.03;;;;;;;7.03;66.01;98802.61;125547;1104;103014;-70
2021/05/03 06:19:52;;;;;;;11.27;5.63;;;;;;;7.09;65.83;98798.73;125574;1104;103029;-69
2021/05/03 06:22:20;;;;;;;11.40;5.10;;;;;;;7.14;66.07;98807.23;125530;1104;103088;-72
2021/05/03 06:24:50;;;;;;;11.37;5.40;;;;;;;7.17;65.80;98801.74;125582;1104;103142;-77
2021/05/03 06:27:17;;;;;;;10.77;5.07;;;;;;;7.18;65.70;98808.73;125519;1096;102990;-70
2021/05/03 06:29:44;;;;;;;14.40;6.10;;;;;;;7.19;66.15;98809.57;125564;1104;103014;-70
2021/05/03 06:32:12;;;;;;;14.08;6.00;;;;;;;7.20;66.16;98816.56;125535;1104;103014;-71
2021/05/03 06:34:41;;;;;;;15.43;6.20;;;;;;;7.20;65.96;98813.91;125554;1097;103022;-71
2021/05/03 06:37:09;;;;;;;13.00;5.50;;;;;;;7.18;66.10;98805.22;125572;1104;103125;-71
2021/05/03 06:39:37;;;;;;;14.43;5.73;;;;;;;7.15;65.94;98806.28;125487;1104;103100;-71
2021/05/03 06:42:08;;;;;;;10.83;4.80;;;;;;;7.17;65.89;98809.68;125556;1104;103161;-71
2021/05/03 06:44:38;;;;;;;11.80;5.07;;;;;;;7.21;66.19;98815.62;125535;1098;103478;-71
2021/05/03 06:47:12;;;;;;;13.33;5.60;;;;;;;7.18;65.96;98815.80;125557;1104;103118;-70
2021/05/03 06:49:45;;;;;;;10.87;5.27;;;;;;;7.17;65.87;98816.75;125529;1104;103133;-71
2021/05/03 06:52:13;;;;;;;12.70;5.55;;;;;;;7.21;65.85;98823.55;125502;1100;103083;-72
2021/05/03 06:54:42;;;;;;;13.80;5.73;;;;;;;7.24;66.09;98826.00;125490;1104;103103;-73
2021/05/03 06:57:09;;;;;;;16.27;6.73;;;;;;;7.27;65.88;98815.23;125554;1099;103089;-72
2021/05/03 06:59:36;;;;;;;14.30;6.00;;;;;;;7.41;66.04;98827.58;125568;1105;103090;-70
2021/05/03 07:02:05;;;;;;;14.77;5.93;;;;;;;7.53;66.05;98828.63;125529;1098;103230;-72
2021/05/03 07:04:34;;;;;;;13.53;5.77;;;;;;;7.57;66.31;98822.16;125497;1097;103108;-71
2021/05/03 07:07:02;;;;;;;16.60;7.37;;;;;;;7.58;66.10;98827.37;125584;1104;102994;-73
2021/05/03 07:09:29;;;;;;;11.03;5.67;;;;;;;7.60;66.10;98825.47;125057;1104;103097;-74
2021/05/03 07:11:57;;;;;;;17.47;7.80;;;;;;;7.62;66.29;98828.00;125410;1100;103062;-71
2021/05/03 07:14:24;;;;;;;15.37;7.27;;;;;;;7.66;66.31;98831.33;125490;1104;103126;-75
2021/05/03 07:16:52;;;;;;;16.87;7.90;;;;;;;7.69;66.24;98824.02;125230;1104;102991;-74
2021/05/03 07:19:19;;;;;;;15.55;7.95;;;;;;;7.75;66.13;98822.77;125435;1104;103046;-74
2021/05/03 07:21:46;;;;;;;16.20;7.10;;;;;;;7.78;66.34;98827.86;125355;1104;103042;-76
2021/05/03 07:24:14;;;;;;;17.73;8.90;;;;;;;7.81;66.08;98826.83;125332;1104;102997;-77
2021/05/03 07:26:41;;;;;;;20.03;7.73;;;;;;;7.84;65.93;98824.81;125380;1104;103047;-77
2021/05/03 07:29:09;;;;;;;16.87;7.57;;;;;;;7.88;66.06;98830.78;125380;1104;102996;-75
2021/05/03 07:31:36;;;;;;;17.27;7.53;;;;;;;7.94;65.94;98830.38;125455;1104;103437;-75
2021/05/03 07:34:04;;;;;;;15.63;7.90;;;;;;;8.05;65.94;98827.85;125375;1104;103065;-76
2021/05/03 07:36:33;;;;;;;16.90;7.27;;;;;;;8.10;66.20;98830.22;125329;1104;103033;-74
2021/05/03 07:39:01;;;;;;;17.40;7.87;;;;;;;8.11;66.13;98826.61;125364;1104;103097;-72
2021/05/03 07:41:28;;;;;;;19.77;8.50;;;;;;;8.14;66.01;98822.90;125275;1098;103029;-73
2021/05/03 07:43:56;;;;;;;18.37;8.50;;;;;;;8.13;66.26;98827.36;125379;1104;103007;-74
2021/05/03 07:46:26;;;;;;;16.27;7.40;;;;;;;8.11;66.01;98837.21;125383;1104;103049;-76
2021/05/03 07:48:56;;;;;;;15.73;7.00;;;;;;;8.10;66.17;98837.30;125396;1104;103088;-75
2021/05/03 07:51:23;;;;;;;14.77;7.20;;;;;;;8.09;66.14;98836.47;125383;1104;103168;-76
2021/05/03 07:53:52;;;;;;;11.90;5.77;;;;;;;8.12;66.04;98840.69;125310;1104;103132;-75
2021/05/03 07:56:20;;;;;;;16.40;7.63;;;;;;;8.12;65.78;98851.30;125365;1104;103071;-71
2021/05/03 07:58:49;;;;;;;14.80;6.63;;;;;;;8.17;65.95;98846.55;125483;1105;103040;-77
2021/05/03 08:01:18;;;;;;;12.95;6.10;;;;;;;8.24;65.87;98839.89;125768;1100;102997;-77
2021/05/03 08:03:46;;;;;;;16.30;6.80;;;;;;;8.31;65.88;98843.83;125382;1104;103115;-78
2021/05/03 08:06:14;;;;;;;13.90;5.97;;;;;;;8.42;66.04;98839.58;125345;1104;103083;-70
2021/05/03 08:08:45;;;;;;;11.50;5.70;;;;;;;8.56;66.29;98850.15;125360;1104;103083;-70
2021/05/03 08:11:14;;;;;;;11.87;5.37;;;;;;;8.74;66.29;98845.39;125273;1100;103026;-78
2021/05/03 08:13:43;;;;;;;11.75;5.30;;;;;;;8.84;65.99;98845.59;125487;1104;103509;-79
2021/05/03 08:16:17;;;;;;;11.10;5.23;;;;;;;8.88;65.75;98856.86;125697;1098;103153;-80
2021/05/03 08:18:45;;;;;;;13.53;5.70;;;;;;;8.81;65.73;98853.75;125450;1104;100635;-80
2021/05/03 08:21:12;;;;;;;15.90;6.70;;;;;;;8.78;65.92;98854.83;125711;1104;102991;-78
2021/05/03 08:23:42;;;;;;;14.67;5.93;;;;;;;8.79;65.33;98861.84;125731;1104;103120;-74
2021/05/03 08:26:10;;;;;;;12.03;5.37;;;;;;;8.78;65.43;98864.57;125557;1104;103087;-77
2021/05/03 08:28:46;;;;;;;16.97;5.70;;;;;;;8.76;65.35;98854.09;125567;1104;103116;-77
2021/05/03 08:31:13;;;;;;;12.43;5.60;;;;;;;8.75;65.23;98859.51;125515;1104;103078;-75
2021/05/03 08:33:46;;;;;;;11.77;5.20;;;;;;;8.74;65.21;98868.42;125455;1100;103110;-74
2021/05/03 08:36:13;;;;;;;12.33;5.13;;;;;;;8.71;65.58;98871.28;125412;1104;103177;-81
2021/05/03 08:38:41;;;;;;;11.43;4.93;;;;;;;8.69;65.52;98867.88;125365;1104;103116;-75
2021/05/03 08:41:08;;;;;;;10.23;5.03;;;;;;;8.72;65.43;98871.16;125452;1104;103083;-78
2021/05/03 08:43:40;;;;;;;12.73;5.27;;;;;;;8.76;65.72;98867.34;125404;1097;102992;-75
2021/05/03 08:46:10;;;;;;;10.87;4.77;;;;;;;8.83;65.07;98877.54;125446;1104;103463;-78
2021/05/03 08:48:42;;;;;;;14.93;5.37;;;;;;;8.97;65.14;98887.19;125452;1104;103068;-78
2021/05/03 08:51:18;;;;;;;8.33;4.43;;;;;;;9.18;64.57;98875.07;125489;1104;103069;-80
2021/05/03 08:53:55;;;;;;;14.57;5.73;;;;;;;9.43;64.88;98862.73;125497;1104;103134;-74
2021/05/03 08:56:22;;;;;;;11.50;5.10;;;;;;;9.93;64.32;98867.99;125416;1104;103016;-77
2021/05/03 08:58:50;;;;;;;13.20;5.15;;;;;;;10.06;64.64;98875.91;125668;1104;103183;-80
2021/05/03 09:01:18;;;;;;;11.07;5.17;;;;;;;10.04;64.45;98874.33;125437;1104;103006;-79
2021/05/03 09:03:51;;;;;;;8.77;4.50;;;;;;;9.92;64.24;98874.27;125559;1104;103022;-76
2021/05/03 09:06:19;;;;;;;10.90;4.30;;;;;;;9.74;64.53;98873.80;125427;1104;103119;-76
2021/05/03 09:09:04;;;;;;;9.80;3.97;;;;;;;9.98;64.22;98886.27;125445;1100;103023;-74
2021/05/03 09:11:34;;;;;;;9.57;4.23;;;;;;;9.94;63.89;98890.11;125492;1104;103065;-74
2021/05/03 09:14:16;;;;;;;8.17;3.87;;;;;;;10.60;63.48;98876.39;125456;1104;103144;-75
2021/05/03 09:16:45;;;;;;;6.95;3.55;;;;;;;10.64;63.65;98887.64;125459;1097;103112;-75
2021/05/03 09:19:14;;;;;;;7.77;3.80;;;;;;;10.48;63.57;98895.93;125499;1104;103576;-76
2021/05/03 09:21:41;;;;;;;9.87;3.93;;;;;;;10.93;63.35;98884.58;125452;1105;103009;-75
2021/05/03 09:24:33;;;;;;;6.13;3.40;;;;;;;11.30;63.12;98887.86;125451;1100;103152;-78
2021/05/03 09:27:06;;;;;;;9.43;3.83;;;;;;;11.29;63.26;98901.31;125450;1104;103023;-72
2021/05/03 09:29:46;;;;;;;8.38;4.20;;;;;;;11.19;63.21;98911.84;125460;1104;103113;-76
2021/05/03 09:32:20;;;;;;;7.97;3.80;;;;;;;11.11;63.29;98920.40;125509;1104;103122;-74
2021/05/03 09:34:52;;;;;;;7.40;3.73;;;;;;;11.04;63.24;98913.02;125480;1104;103160;-80
2021/05/03 09:37:34;;;;;;;6.50;3.53;;;;;;;10.97;62.96;98915.31;125573;1098;103579;-79
2021/05/03 09:40:14;;;;;;;10.00;3.80;;;;;;;10.91;62.99;98918.44;125626;1104;103031;-77
2021/05/03 09:42:43;;;;;;;9.35;4.00;;;;;;;10.75;62.47;98914.28;125538;1097;103078;-76
2021/05/03 09:45:14;;;;;;;7.70;3.20;;;;;;;10.57;62.15;98941.32;125521;1104;103019;-74
2021/05/03 09:47:42;;;;;;;9.07;3.80;;;;;;;10.36;62.23;98934.89;125523;1104;103106;-75
2021/05/03 09:50:16;;;;;;;8.05;3.60;;;;;;;10.31;62.22;98940.56;125605;1100;103093;-78
2021/05/03 09:53:08;;;;;;;7.93;4.03;;;;;;;10.24;62.27;98948.12;125527;1104;103136;-74
2021/05/03 09:55:53;;;;;;;8.60;3.40;;;;;;;10.25;61.95;98938.35;125532;1104;103088;-76
2021/05/03 09:58:23;;;;;;;11.33;4.03;;;;;;;10.18;62.07;98947.73;125493;1104;102992;-76
2021/05/03 10:00:56;;;;;;;9.90;3.70;;;;;;;10.06;62.15;98952.14;125501;1100;103045;-81
2021/05/03 10:03:28;;;;;;;;;;;;;;;9.94;61.90;98948.56;125577;1104;103021;-79
2021/05/03 10:05:57;;;;;;;9.37;4.50;;;;;;;9.83;61.92;98944.00;125538;1104;103020;-75
2021/05/03 10:08:26;;;;;;;8.57;4.13;;;;;;;9.98;62.02;98955.36;125561;1104;103110;-76
2021/05/03 10:10:57;;;;;;;10.57;4.77;;;;;;;10.00;61.67;98948.09;125538;1104;102997;-74
2021/05/03 10:13:25;;;;;;;8.23;4.13;;;;;;;9.99;61.90;98962.34;125508;1104;103149;-73
2021/05/03 10:15:57;;;;;;;10.17;4.47;;;;;;;9.93;61.63;98971.61;125511;1104;103000;-75
2021/05/03 10:18:27;;;;;;;7.53;3.93;;;;;;;10.01;61.43;98971.05;125527;1100;103123;-76
2021/05/03 10:20:57;;;;;;;11.17;4.80;;;;;;;10.11;61.60;98960.63;125619;1100;103065;-77
2021/05/03 10:23:30;;;;;;;10.53;4.45;;;;;;;10.16;61.32;98962.94;125606;1098;103083;-76
2021/05/03 10:25:59;;;;;;;7.70;4.30;;;;;;;10.06;61.32;98971.57;125352;1104;103091;-74
2021/05/03 10:28:28;;;;;;;8.87;4.47;;;;;;;9.93;61.29;98984.06;125303;1104;103119;-70
2021/05/03 10:30:58;;;;;;;10.80;4.87;;;;;;;9.78;61.04;98989.50;125353;1104;102984;-73
2021/05/03 10:33:38;;;;;;;10.90;5.10;;;;;;;9.61;60.84;98979.20;125366;1104;103526;-73
2021/05/03 10:36:09;;;;;;;11.63;4.50;;;;;;;9.45;60.93;98982.08;125351;1104;103574;-74
2021/05/03 10:38:40;;;;;;;12.77;4.73;;;;;;;9.39;61.12;98983.37;125203;1100;102993;-77
2021/05/03 10:41:26;;;;;;;10.83;4.70;;;;;;;9.51;61.29;98987.84;125296;1104;103484;-74
2021/05/03 10:44:18;;;;;;;11.20;5.03;;;;;;;9.71;61.43;98982.08;125265;1104;103023;-75
2021/05/03 10:49:20;;;;;;;10.90;4.93;;;;;;;10.13;61.34;98972.83;127490;1104;102506;-73
2021/05/03 10:51:52;;;;;;;9.98;4.50;;;;;;;10.23;61.17;98983.64;127599;1104;101030;-71
2021/05/03 10:57:33;;;;;;;11.03;4.97;;;;;;;10.31;61.30;98983.09;127093;1107;101196;-75
2021/05/03 11:00:01;;;;;;;12.47;5.83;;;;;;;10.44;60.84;99001.69;127089;1107;101153;-71
2021/05/03 11:02:36;;;;;;;10.77;4.43;;;;;;;10.39;60.82;99009.98;126867;1104;103084;-70
2021/05/03 11:05:25;;;;;;;8.37;3.47;;;;;;;10.33;60.78;99006.90;125201;1104;103088;-71
2021/05/03 11:08:05;;;;;;;11.27;3.40;;;;;;;10.11;60.60;99021.75;125425;1104;103006;-74
2021/05/03 11:11:04;;;;;;;8.63;4.07;;;;;;;9.96;60.66;99026.36;125399;1099;103468;-74
2021/05/03 11:13:41;;;;;;;9.57;4.10;;;;;;;9.78;60.69;99021.38;125485;1104;103091;-76
2021/05/03 11:16:33;;;;;;;9.47;4.03;;;;;;;9.72;60.55;99015.66;125579;1104;103140;-75
2021/05/03 11:19:29;;;;;;;8.27;3.77;;;;;;;9.67;60.65;99024.79;125502;1104;103091;-74
2021/05/03 11:21:59;;;;;;;9.00;4.20;;;;;;;9.70;60.81;99021.05;125488;1104;103562;-75
2021/05/03 11:24:34;;;;;;;6.93;3.30;;;;;;;9.76;60.41;99017.97;125504;1104;102984;-75
2021/05/03 11:27:13;;;;;;;5.35;3.25;;;;;;;9.81;60.41;99022.95;125515;1104;103020;-77
2021/05/03 11:32:39;;;;;;;7.77;3.57;;;;;;;9.82;60.53;99022.86;125409;1104;103126;-72
2021/05/03 11:41:17;;;;;;;7.70;3.50;;;;;;;9.92;60.35;99031.02;125528;1104;102984;-73
2021/05/03 11:44:00;;;;;;;4.50;2.90;;;;;;;9.81;60.42;99026.47;125494;1098;103048;-74
2021/05/03 11:46:32;;;;;;;5.70;3.40;;;;;;;9.65;60.06;99042.63;125487;1099;103001;-78
2021/05/03 11:49:02;;;;;;;6.10;3.00;;;;;;;9.51;60.08;99037.42;125537;1104;103142;-74
2021/05/03 11:51:29;;;;;;;8.00;3.40;;;;;;;9.42;60.16;99033.60;125610;1104;103089;-74
2021/05/03 11:53:57;;;;;;;8.63;3.57;;;;;;;9.47;60.08;99028.83;125552;1100;103589;-75
2021/05/03 11:56:30;;;;;;;8.13;3.60;;;;;;;9.52;60.00;99028.50;125546;1104;103149;-78
2021/05/03 11:59:00;;;;;;;8.50;3.50;;;;;;;9.46;60.09;99032.44;125509;1104;103059;-78
2021/05/03 12:01:30;;;;;;;7.57;3.53;;;;;;;9.45;60.05;99016.59;125528;1105;103016;-77
2021/05/03 12:03:59;;;;;;;7.87;4.10;;;;;;;9.39;59.80;99031.98;125553;1104;102989;-75
2021/05/03 12:06:44;;;;;;;7.17;3.67;;;;;;;9.39;59.91;99045.26;125525;1105;103014;-74
2021/05/03 12:09:14;;;;;;;8.73;3.90;;;;;;;9.47;59.92;99031.48;125539;1104;103059;-76
2021/05/03 12:11:59;;;;;;;8.27;3.80;;;;;;;9.51;60.07;99048.04;125487;1104;103003;-78
2021/05/03 12:14:48;;;;;;;8.00;3.73;;;;;;;9.55;59.68;99044.22;125532;1104;103014;-78
2021/05/03 12:17:26;;;;;;;7.73;3.50;;;;;;;9.53;59.61;99040.82;125523;1104;103088;-77
2021/05/03 12:20:08;;;;;;;7.33;3.00;;;;;;;9.47;59.65;99042.10;125523;1104;103085;-77
2021/05/03 12:22:38;;;;;;;14.17;5.47;;;;;;;9.43;59.52;99047.70;125414;1099;103150;-77
2021/05/03 12:25:10;;;;;;;19.33;6.57;;;;;;;9.41;59.66;99049.62;125371;1104;103127;-77
2021/05/03 12:27:38;;;;;;;7.60;3.80;;;;;;;9.46;59.70;99027.13;125479;1104;103087;-83
2021/05/03 12:30:10;;;;;;;7.55;3.15;;;;;;;9.56;59.93;99031.81;125800;1100;103096;-81
2021/05/03 12:32:41;;;;;;;9.77;3.43;;;;;;;9.61;59.77;99027.87;125819;1104;103147;-83
2021/05/03 12:35:29;;;;;;;6.93;3.10;;;;;;;9.62;59.63;99034.88;125860;1104;102934;-78
2021/05/03 12:37:56;;;;;;;9.63;3.77;;;;;;;9.61;59.55;99029.66;125410;1104;103130;-78
2021/05/03 12:40:24;;;;;;;9.07;4.03;;;;;;;9.57;59.33;99022.89;125839;1104;102987;-74
2021/05/03 12:42:54;;;;;;;7.93;3.50;;;;;;;9.52;59.47;99044.43;125263;1104;103129;-75
2021/05/03 12:45:34;;;;;;;10.53;4.53;;;;;;;9.51;59.64;99038.28;125481;1100;103094;-69
2021/05/03 12:50:50;;;;;;;13.05;4.60;;;;;;;9.77;59.75;99030.30;125350;1104;102990;-70
2021/05/03 12:58:41;;;;;;;9.05;4.00;;;;;;;9.74;59.45;99051.77;125472;1104;103062;-74
2021/05/03 13:04:34;;;;;;;9.13;3.77;;;;;;;9.81;59.11;99038.89;125489;1104;103097;-75
2021/05/03 13:07:14;;;;;;;7.50;3.70;;;;;;;9.91;59.39;99031.14;125468;1104;102990;-77
2021/05/03 13:24:27;;;;;;;6.47;3.20;;;;;;;9.84;59.12;99020.08;125493;1104;103094;-75
2021/05/03 13:29:46;;;;;;;7.77;3.90;;;;;;;10.10;59.05;99026.20;125506;1097;103119;-76
2021/05/03 13:32:20;;;;;;;8.60;3.77;;;;;;;10.05;59.24;99023.02;125401;1104;102991;-75
2021/05/03 13:34:49;;;;;;;8.73;3.40;;;;;;;10.05;58.91;99032.81;125469;1104;102996;-75
2021/05/03 13:37:18;;;;;;;10.17;4.07;;;;;;;10.03;58.88;99032.91;125466;1104;103010;-73
2021/05/03 13:40:09;;;;;;;8.20;4.00;;;;;;;10.05;58.80;99036.31;125535;1104;103110;-76
2021/05/03 13:42:37;;;;;;;11.80;4.70;;;;;;;10.06;58.74;99038.02;125544;1104;103116;-74
2021/05/03 13:45:06;;;;;;;7.43;3.33;;;;;;;10.05;58.93;99027.50;125473;1099;103492;-75
2021/05/03 13:47:33;;;;;;;7.37;3.33;;;;;;;10.05;58.71;99023.02;125561;1104;103016;-75
2021/05/03 13:50:02;;;;;;;6.67;3.30;;;;;;;10.11;58.85;99019.94;125498;1104;102915;-76
2021/05/03 13:52:29;;;;;;;8.13;3.43;;;;;;;10.18;58.96;99015.05;125509;1099;102993;-74
2021/05/03 13:54:58;;;;;;;7.17;3.57;;;;;;;10.24;58.97;99016.41;125540;1104;103131;-73
2021/05/03 13:57:25;;;;;;;6.87;3.10;;;;;;;10.26;58.82;99009.16;125465;1104;103011;-75
2021/05/03 13:59:52;;;;;;;7.50;3.50;;;;;;;10.28;58.60;99017.88;125577;1099;103089;-74
2021/05/03 14:02:20;;;;;;;5.93;3.00;;;;;;;10.33;58.75;99015.73;125536;1098;103160;-74
2021/05/03 14:04:48;;;;;;;6.07;2.60;;;;;;;10.39;58.53;99009.98;125561;1104;102996;-73
2021/05/03 14:07:15;;;;;;;4.20;2.53;;;;;;;10.43;58.50;99003.48;125585;1099;103115;-72
2021/05/03 14:09:42;;;;;;;4.80;2.57;;;;;;;10.52;58.69;99007.30;125603;1098;103158;-73
2021/05/03 14:12:10;;;;;;;5.43;2.10;;;;;;;10.59;58.31;99015.66;125656;1100;103020;-74
2021/05/03 14:14:38;;;;;;;4.43;2.50;;;;;;;10.59;58.36;99012.17;125556;1099;103121;-73
2021/05/03 14:17:08;;;;;;;7.00;3.10;;;;;;;10.55;58.38;99022.17;125553;1104;103113;-75
2021/05/03 14:19:42;;;;;;;5.63;2.70;;;;;;;10.46;58.29;99012.20;125575;1104;103091;-74
2021/05/03 14:22:10;;;;;;;9.27;3.57;;;;;;;10.39;58.18;99025.10;125574;1104;103089;-75
2021/05/03 14:24:38;;;;;;;7.10;3.50;;;;;;;10.34;58.14;99033.39;125589;1104;103116;-76
2021/05/03 14:27:05;;;;;;;10.80;3.80;;;;;;;10.30;58.20;99039.02;125507;1104;103096;-76
2021/05/03 14:29:57;;;;;;;11.23;3.80;;;;;;;10.20;58.22;99044.99;125514;1100;103072;-75
2021/05/03 14:32:38;;;;;;;7.27;3.00;;;;;;;10.08;58.08;99049.38;125493;1100;103273;-75
2021/05/03 14:35:10;;;;;;;6.67;3.33;;;;;;;10.04;58.30;99050.56;125371;1104;103096;-76
2021/05/03 14:37:37;;;;;;;8.33;3.40;;;;;;;10.07;58.19;99041.53;125359;1104;103003;-75
2021/05/03 14:40:05;;;;;;;6.00;3.10;;;;;;;10.10;57.99;99042.16;125583;1097;103018;-76
2021/05/03 14:42:33;;;;;;;11.10;4.53;;;;;;;10.13;58.21;99041.94;125563;1104;103008;-76
2021/05/03 14:45:00;;;;;;;9.60;4.00;;;;;;;10.11;58.14;99043.02;125542;1098;102157;-77
2021/05/03 14:47:41;;;;;;;9.03;3.83;;;;;;;10.07;57.92;99044.19;125557;1104;103045;-77
2021/05/03 14:55:38;;;;;;;10.20;3.80;;;;;;;9.97;57.87;99044.00;125578;1096;103178;-76
2021/05/03 14:58:05;;;;;;;9.53;3.70;;;;;;;9.97;57.95;99046.66;125585;1104;103118;-74
2021/05/03 15:00:33;;;;;;;9.67;3.40;;;;;;;9.90;57.83;99045.39;125517;1104;103072;-74
2021/05/03 15:03:00;;;;;;;8.17;3.30;;;;;;;9.81;57.78;99052.17;125528;1104;103513;-76
2021/05/03 15:05:30;;;;;;;5.27;3.20;;;;;;;9.78;57.64;99053.25;125566;1098;103628;-79
2021/05/03 15:07:57;;;;;;;6.37;3.30;;;;;;;9.76;57.92;99055.16;125585;1098;102991;-73
2021/05/03 15:10:25;;;;;;;4.93;3.13;;;;;;;9.69;57.77;99048.57;125548;1104;103128;-67
2021/05/03 15:12:55;;;;;;;7.17;3.50;;;;;;;9.68;57.63;99038.91;125474;1104;103028;-73
2021/05/03 15:23:51;;;;;;;8.23;3.60;;;;;;;9.78;57.83;99037.31;125524;1104;103515;-73
